KLOT/LOT METAR and TAF weather

Enter ICAO airport designator
Station Type Date Time Source
KLOT METAR 2019/04/18 22:35 UTC NOAA

KLOT 182235Z AUTO 33011G15KT 10SM BKN018 OVC025 09/06 A2973 RMK AO2 T00850058


Station Type Date Time Source
KLOT Decoded METAR 2019/04/18 22:35 UTC NOAA

Chicago/Romeoville, Lewis University Airport, IL, United States (KLOT) 41-36-30N 088-05-39W
Apr 18, 2019 - 06:35 PM EDT / 2019.04.18 2235 UTC
Wind: from the NNW (330 degrees) at 13 MPH (11 KT) gusting to 17 MPH (15 KT):0
Visibility: 10 mile(s):0
Sky conditions: overcast
Temperature: 47.3 F (8.5 C)
Dew Point: 42.4 F (5.8 C)
Relative Humidity: 83%
Pressure (altimeter): 29.73 in. Hg (1006 hPa)
ob: KLOT 182235Z AUTO 33011G15KT 10SM BKN018 OVC025 09/06 A2973 RMK AO2 T00850058
cycle: 22

Station Type Date Time Source
KLOT TAF UTC NOAA

Error!

Example: see airport list